Arcadia Lakes, South Carolina
Current Conditions -  °F | °C
As of 10:53 PM on Wednesday 22 Oct 2014 (Local Time) from KCUB Reporting Station
Clear Clear  
Wind Chill: 56°   Ceiling: Unl
Heat Index: 56°   Visibility: 10mi
Dew Point: 41°   Wind: 6mph
Humidity: 57%   Direction: NA
Pressure: 30.11"   Gusts: NA
Location:  34.025°N, 80.9562°W
Report Text: KCUB 230253Z AUTO VRB05KT 10SM CLR 13/05 A3011 RMK AO2 SLP193 T01330050 51016
Loading
Personal Weather Stations






























Interactive Weather Map
Tropical Storm Tracking
New forecast layout! Learn more

10-Day Weather Forecast

Advertisements
Track Severe Weather on mobile